createdAt,value
2018-12-29T00:00:47.564Z,8.25
2018-12-29T00:03:17.351Z,9.53
2018-12-29T00:05:46.770Z,8.68
2018-12-29T00:08:16.216Z,9.93
2018-12-29T00:10:45.703Z,10.08
2018-12-29T00:13:15.420Z,10.63
2018-12-29T00:15:44.853Z,10.85
2018-12-29T00:18:14.269Z,10.63
2018-12-29T00:20:43.729Z,11.43
2018-12-29T00:23:13.161Z,10.65
2018-12-29T00:25:43.023Z,10.53
2018-12-29T00:28:12.475Z,11.12
2018-12-29T00:30:41.925Z,10.20
2018-12-29T00:33:11.453Z,9.35
2018-12-29T00:35:59.948Z,10.35
2018-12-29T00:38:29.387Z,10.03
2018-12-29T00:40:58.827Z,10.00
2018-12-29T00:43:28.255Z,10.75
2018-12-29T00:45:57.750Z,10.95
2018-12-29T00:48:27.478Z,12.10
2018-12-29T00:50:56.934Z,13.10
2018-12-29T00:53:26.352Z,12.82
2018-12-29T00:55:55.870Z,14.87
2018-12-29T00:58:25.300Z,13.38
2018-12-29T01:00:54.761Z,14.20
2018-12-29T01:03:24.597Z,13.48
2018-12-29T01:05:54.067Z,13.00
2018-12-29T01:08:23.512Z,11.78
2018-12-29T01:10:52.975Z,13.45
2018-12-29T01:13:22.380Z,13.43
2018-12-29T01:15:51.861Z,13.10
2018-12-29T01:18:21.290Z,12.85
2018-12-29T01:20:50.742Z,13.15
2018-12-29T01:23:20.493Z,12.50
2018-12-29T01:25:49.950Z,13.72
2018-12-29T01:28:20.562Z,13.95
2018-12-29T01:30:50.237Z,15.43
2018-12-29T01:33:19.678Z,12.82
2018-12-29T01:35:49.437Z,15.43
2018-12-29T01:38:18.876Z,14.45
2018-12-29T01:40:48.651Z,13.10
2018-12-29T01:43:18.510Z,13.65
2018-12-29T01:45:47.964Z,14.00
2018-12-29T01:48:36.456Z,12.47
2018-12-29T01:51:05.906Z,12.53
2018-12-29T01:53:35.647Z,13.70
2018-12-29T01:56:05.078Z,12.73
2018-12-29T01:58:34.663Z,12.20
2018-12-29T02:01:04.096Z,12.88
2018-12-29T02:03:33.582Z,12.88
2018-12-29T02:06:03.003Z,13.00
2018-12-29T02:08:32.738Z,13.15
2018-12-29T02:11:02.190Z,11.50
2018-12-29T02:13:32.115Z,12.10
2018-12-29T02:16:01.812Z,12.55
2018-12-29T02:18:31.243Z,11.60
2018-12-29T02:21:00.671Z,11.65
2018-12-29T02:23:31.217Z,12.50
2018-12-29T02:26:00.987Z,11.93
2018-12-29T02:28:30.427Z,11.75
2018-12-29T02:31:00.273Z,12.10
2018-12-29T02:33:29.722Z,11.93
2018-12-29T02:35:59.154Z,12.10
2018-12-29T02:38:28.580Z,12.05
2018-12-29T02:40:58.046Z,12.68
2018-12-29T02:43:27.551Z,12.37
2018-12-29T02:45:57.004Z,13.22
2018-12-29T02:48:26.443Z,12.47
2018-12-29T02:50:56.175Z,12.33
2018-12-29T02:53:25.612Z,11.15
2018-12-29T02:55:55.050Z,12.30
2018-12-29T02:58:24.470Z,12.60
2018-12-29T03:00:53.909Z,11.90
2018-12-29T03:03:23.725Z,11.97
2018-12-29T03:05:53.166Z,11.73
2018-12-29T03:08:22.599Z,12.28
2018-12-29T03:10:52.066Z,12.20
2018-12-29T03:13:21.492Z,12.00
2018-12-29T03:15:51.022Z,11.45
2018-12-29T03:18:20.459Z,10.98
2018-12-29T03:20:50.310Z,11.90
2018-12-29T03:23:19.735Z,10.80
2018-12-29T03:25:49.565Z,10.35
2018-12-29T03:28:19.005Z,10.38
2018-12-29T03:30:48.835Z,9.33
2018-12-29T03:33:18.244Z,9.25
2018-12-29T03:35:47.867Z,8.38
2018-12-29T03:38:17.320Z,8.85
2018-12-29T03:40:46.753Z,7.87
2018-12-29T03:43:16.206Z,7.92
2018-12-29T03:45:49.204Z,7.65
2018-12-29T03:48:16.768Z,7.05
2018-12-29T03:50:46.215Z,7.12
2018-12-29T03:53:15.639Z,5.40
2018-12-29T03:55:45.073Z,7.33
2018-12-29T03:58:14.494Z,7.58
2018-12-29T04:00:43.935Z,7.67
2018-12-29T04:03:13.355Z,6.12
2018-12-29T04:05:42.776Z,7.05
2018-12-29T04:08:12.237Z,7.45
2018-12-29T04:10:41.775Z,7.12
2018-12-29T04:13:11.199Z,7.67
2018-12-29T04:15:40.616Z,8.38
2018-12-29T04:18:10.121Z,7.33
2018-12-29T04:20:39.546Z,7.55
2018-12-29T04:23:09.009Z,7.92
2018-12-29T04:25:38.419Z,7.85
2018-12-29T04:28:08.012Z,8.08
2018-12-29T04:30:37.426Z,7.78
2018-12-29T04:33:06.851Z,8.88
2018-12-29T04:35:36.293Z,8.93
2018-12-29T04:38:05.739Z,8.75
2018-12-29T04:40:35.650Z,9.05
2018-12-29T04:43:05.079Z,7.90
2018-12-29T04:45:34.505Z,8.05
2018-12-29T04:48:03.978Z,9.00
2018-12-29T04:50:33.397Z,8.30
2018-12-29T04:53:02.920Z,9.98
2018-12-29T04:55:32.713Z,9.25
2018-12-29T04:58:02.148Z,8.75
2018-12-29T05:00:31.577Z,9.28
2018-12-29T05:03:01.025Z,10.90
2018-12-29T05:05:30.447Z,11.22
2018-12-29T05:07:59.880Z,11.57
2018-12-29T05:10:29.316Z,12.30
2018-12-29T05:12:58.752Z,12.03
2018-12-29T05:15:28.177Z,12.20
2018-12-29T05:17:57.617Z,10.63
2018-12-29T05:20:27.052Z,11.08
2018-12-29T05:22:56.479Z,12.15
2018-12-29T05:25:26.009Z,11.18
2018-12-29T05:27:55.456Z,11.15
2018-12-29T05:30:24.899Z,10.43
2018-12-29T05:32:54.315Z,11.43
2018-12-29T05:35:23.767Z,10.60
2018-12-29T05:37:53.194Z,10.20
2018-12-29T05:40:23.030Z,11.38
2018-12-29T05:42:52.460Z,10.80
2018-12-29T05:45:22.292Z,10.98
2018-12-29T05:47:51.760Z,10.75
2018-12-29T05:50:21.612Z,10.58
2018-12-29T05:52:51.049Z,11.40
2018-12-29T05:55:20.498Z,10.93
2018-12-29T05:57:50.348Z,12.33
2018-12-29T06:00:19.802Z,11.90
2018-12-29T06:02:49.234Z,10.50
2018-12-29T06:05:18.968Z,12.73
2018-12-29T06:07:48.408Z,12.25
2018-12-29T06:10:17.849Z,12.33
2018-12-29T06:12:47.269Z,12.18
2018-12-29T06:15:16.701Z,12.13
2018-12-29T06:17:46.152Z,13.22
2018-12-29T06:20:15.587Z,12.15
2018-12-29T06:23:04.054Z,13.60
2018-12-29T06:25:33.487Z,13.38
2018-12-29T06:28:02.910Z,13.05
2018-12-29T06:30:33.631Z,14.73
2018-12-29T06:33:03.041Z,14.07
2018-12-29T06:35:32.473Z,14.35
2018-12-29T06:38:01.882Z,13.50
2018-12-29T06:40:31.659Z,12.95
2018-12-29T06:43:01.124Z,12.60
2018-12-29T06:45:30.568Z,12.90
2018-12-29T06:48:00.017Z,13.35
2018-12-29T06:50:29.476Z,11.85
2018-12-29T06:52:58.907Z,12.85
2018-12-29T06:55:28.328Z,11.65
2018-12-29T06:57:57.760Z,12.30
2018-12-29T07:00:27.714Z,12.13
2018-12-29T07:02:57.158Z,13.32
2018-12-29T07:05:26.599Z,15.03
2018-12-29T07:07:56.059Z,13.00
2018-12-29T07:10:25.529Z,14.65
2018-12-29T07:12:55.011Z,14.87
2018-12-29T07:15:24.458Z,14.30
2018-12-29T07:17:53.904Z,14.20
2018-12-29T07:20:23.949Z,15.95
2018-12-29T07:22:53.393Z,15.45
2018-12-29T07:25:22.885Z,14.87
2018-12-29T07:27:52.315Z,12.85
2018-12-29T07:30:21.810Z,14.58
2018-12-29T07:32:51.230Z,13.70
2018-12-29T07:35:20.774Z,13.18
2018-12-29T07:37:50.218Z,12.25
2018-12-29T07:40:19.655Z,12.75
2018-12-29T07:42:49.102Z,12.15
2018-12-29T07:45:18.543Z,13.85
2018-12-29T07:47:48.567Z,13.03
2018-12-29T07:50:17.993Z,13.18
2018-12-29T07:52:47.791Z,11.50
2018-12-29T07:55:17.208Z,10.30
2018-12-29T07:57:46.654Z,9.35
2018-12-29T08:00:16.539Z,9.03
2018-12-29T08:02:45.991Z,9.63
2018-12-29T08:05:15.451Z,9.18
2018-12-29T08:07:45.279Z,8.83
2018-12-29T08:10:14.724Z,8.40
2018-12-29T08:12:44.477Z,6.83
2018-12-29T08:15:13.902Z,7.40
2018-12-29T08:17:43.412Z,7.55
2018-12-29T08:20:12.867Z,7.08
2018-12-29T08:22:43.068Z,6.72
2018-12-29T08:25:12.613Z,6.83
2018-12-29T08:27:42.063Z,6.33
2018-12-29T08:30:11.503Z,7.22
2018-12-29T08:32:40.919Z,6.30
2018-12-29T08:35:10.878Z,7.10
2018-12-29T08:37:40.300Z,5.85
2018-12-29T08:40:09.748Z,5.97
2018-12-29T08:42:39.151Z,4.87
2018-12-29T08:45:08.739Z,4.87
2018-12-29T08:47:39.030Z,4.35
2018-12-29T08:50:12.961Z,6.45
2018-12-29T08:52:39.539Z,4.53
2018-12-29T08:55:09.250Z,4.55
2018-12-29T08:57:38.993Z,5.70
2018-12-29T09:00:08.516Z,5.05
2018-12-29T09:02:38.295Z,5.42
2018-12-29T09:05:07.714Z,5.45
2018-12-29T09:07:37.225Z,5.42
2018-12-29T09:10:06.684Z,6.33
2018-12-29T09:12:36.605Z,5.92
2018-12-29T09:15:06.293Z,6.80
2018-12-29T09:17:35.783Z,6.92
2018-12-29T09:20:06.958Z,7.60
2018-12-29T09:22:36.490Z,8.45
2018-12-29T09:25:05.915Z,9.65
2018-12-29T09:27:35.886Z,10.08
2018-12-29T09:30:06.067Z,10.65
2018-12-29T09:32:35.601Z,11.93
2018-12-29T09:35:05.283Z,12.55
2018-12-29T09:37:34.716Z,12.18
2018-12-29T09:40:06.611Z,11.33
2018-12-29T09:42:36.915Z,11.88
2018-12-29T09:45:06.378Z,11.63
2018-12-29T09:47:35.851Z,11.15
2018-12-29T09:50:05.611Z,13.28
2018-12-29T09:52:35.053Z,12.30
2018-12-29T09:55:04.734Z,12.70
2018-12-29T09:57:34.197Z,12.60
2018-12-29T10:00:03.731Z,12.30
2018-12-29T10:02:33.216Z,13.08
2018-12-29T10:05:02.659Z,13.18
2018-12-29T10:07:32.134Z,13.43
2018-12-29T10:10:01.550Z,12.95
2018-12-29T10:12:30.993Z,13.75
2018-12-29T10:15:00.429Z,15.30
2018-12-29T10:17:29.861Z,15.60
2018-12-29T10:19:59.296Z,15.93
2018-12-29T10:22:28.718Z,15.45
2018-12-29T10:24:58.146Z,15.28
2018-12-29T10:27:27.584Z,15.50
2018-12-29T10:29:57.008Z,15.45
2018-12-29T10:32:26.431Z,16.67
2018-12-29T10:34:56.062Z,15.95
2018-12-29T10:37:25.505Z,16.97
2018-12-29T10:39:55.316Z,18.20
2018-12-29T10:42:24.741Z,17.37
2018-12-29T10:44:54.151Z,18.10
2018-12-29T10:47:23.615Z,16.55
2018-12-29T10:49:53.339Z,17.50
2018-12-29T10:52:22.768Z,19.02
2018-12-29T10:54:52.218Z,18.12
2018-12-29T10:57:21.645Z,14.70
2018-12-29T10:59:51.087Z,16.27
2018-12-29T11:02:20.567Z,17.15
2018-12-29T11:04:50.384Z,15.40
2018-12-29T11:07:19.805Z,14.47
2018-12-29T11:09:49.241Z,13.70
2018-12-29T11:12:18.649Z,16.73
2018-12-29T11:14:48.099Z,15.18
2018-12-29T11:17:17.923Z,16.30
2018-12-29T11:19:47.644Z,15.78
2018-12-29T11:22:17.071Z,16.82
2018-12-29T11:24:46.526Z,15.78
2018-12-29T11:27:15.949Z,15.85
2018-12-29T11:29:45.416Z,15.40
2018-12-29T11:32:14.828Z,13.83
2018-12-29T11:34:44.282Z,13.90
2018-12-29T11:37:13.707Z,14.75
2018-12-29T11:39:43.171Z,14.55
2018-12-29T11:42:12.588Z,14.33
2018-12-29T11:44:42.030Z,14.58
2018-12-29T11:47:11.833Z,13.38
2018-12-29T11:49:41.297Z,11.43
2018-12-29T11:52:10.713Z,10.70
2018-12-29T11:54:40.860Z,12.60
2018-12-29T11:57:29.334Z,12.82
2018-12-29T11:59:59.115Z,13.38
2018-12-29T12:02:28.853Z,13.90
2018-12-29T12:04:58.648Z,15.70
2018-12-29T12:07:28.066Z,16.52
2018-12-29T12:09:57.501Z,15.72
2018-12-29T12:12:26.937Z,16.75
2018-12-29T12:14:56.354Z,17.20
2018-12-29T12:17:25.772Z,17.87
2018-12-29T12:19:55.200Z,18.80
2018-12-29T12:22:24.643Z,19.15
2018-12-29T12:24:54.054Z,18.37
2018-12-29T12:27:23.475Z,17.90
2018-12-29T12:29:53.407Z,23.65
2018-12-29T12:32:22.857Z,17.25
2018-12-29T12:34:52.719Z,18.02
2018-12-29T12:37:22.158Z,16.10
2018-12-29T12:39:51.979Z,16.45
2018-12-29T12:42:21.418Z,19.20
2018-12-29T12:44:50.848Z,15.40
2018-12-29T12:47:20.268Z,15.30
2018-12-29T12:49:49.723Z,17.20
2018-12-29T12:52:19.158Z,14.30
2018-12-29T12:54:48.588Z,15.05
2018-12-29T12:57:18.413Z,24.32
2018-12-29T12:59:48.073Z,15.40
2018-12-29T13:02:17.503Z,14.45
2018-12-29T13:04:46.969Z,16.80
2018-12-29T13:07:16.414Z,18.27
2018-12-29T13:09:46.620Z,14.00
2018-12-29T13:12:16.168Z,13.55
2018-12-29T13:14:45.585Z,10.98
2018-12-29T13:17:15.026Z,11.90
2018-12-29T13:19:44.864Z,11.05
2018-12-29T13:22:14.301Z,12.20
2018-12-29T13:24:43.731Z,10.93
2018-12-29T13:27:13.477Z,10.93
2018-12-29T13:29:42.914Z,16.25
2018-12-29T13:32:12.335Z,10.50
2018-12-29T13:34:41.777Z,13.25
2018-12-29T13:37:11.233Z,9.98
2018-12-29T13:39:40.620Z,9.95
2018-12-29T13:42:10.072Z,9.50
2018-12-29T13:44:39.499Z,9.30
2018-12-29T13:47:08.919Z,14.00
2018-12-29T13:49:38.382Z,13.70
2018-12-29T13:52:07.803Z,10.00
2018-12-29T13:54:37.248Z,11.20
2018-12-29T13:57:06.679Z,8.80
2018-12-29T13:59:36.118Z,8.48
2018-12-29T14:02:06.052Z,9.70
2018-12-29T14:04:35.580Z,9.73
2018-12-29T14:07:04.999Z,10.05
2018-12-29T14:09:34.423Z,10.30
2018-12-29T14:12:03.854Z,11.85
2018-12-29T14:14:33.357Z,10.95
2018-12-29T14:17:02.845Z,10.50
2018-12-29T14:19:32.283Z,17.73
2018-12-29T14:22:01.741Z,10.60
2018-12-29T14:24:31.897Z,10.75
2018-12-29T14:27:01.323Z,13.98
2018-12-29T14:29:30.747Z,10.50
2018-12-29T14:32:01.084Z,9.80
2018-12-29T14:34:30.527Z,10.13
2018-12-29T14:36:59.958Z,10.35
2018-12-29T14:39:29.379Z,7.87
2018-12-29T14:41:58.797Z,8.60
2018-12-29T14:44:28.240Z,8.40
2018-12-29T14:46:57.744Z,8.90
2018-12-29T14:49:27.197Z,14.28
2018-12-29T14:51:56.645Z,8.10
2018-12-29T14:54:26.066Z,7.62
2018-12-29T14:56:55.497Z,7.75
2018-12-29T14:59:25.235Z,8.50
2018-12-29T15:01:54.673Z,8.65
2018-12-29T15:04:24.102Z,8.75
2018-12-29T15:06:53.524Z,7.03
2018-12-29T15:09:22.965Z,7.45
2018-12-29T15:11:52.395Z,7.47
2018-12-29T15:14:21.839Z,5.45
2018-12-29T15:16:51.656Z,6.33
2018-12-29T15:19:21.083Z,5.95
2018-12-29T15:21:50.510Z,7.17
2018-12-29T15:24:19.936Z,5.95
2018-12-29T15:26:49.356Z,6.55
2018-12-29T15:29:19.571Z,6.67
2018-12-29T15:31:48.999Z,6.15
2018-12-29T15:34:18.444Z,6.67
2018-12-29T15:36:47.867Z,6.50
2018-12-29T15:39:17.285Z,7.00
2018-12-29T15:41:46.715Z,6.25
2018-12-29T15:44:16.139Z,7.65
2018-12-29T15:46:45.919Z,7.60
2018-12-29T15:49:15.360Z,8.10
2018-12-29T15:51:44.803Z,7.30
2018-12-29T15:54:14.217Z,6.80
2018-12-29T15:56:43.969Z,7.90
2018-12-29T15:59:13.383Z,7.85
2018-12-29T16:01:42.821Z,8.53
2018-12-29T16:04:12.603Z,7.40
2018-12-29T16:06:42.043Z,8.23
2018-12-29T16:09:11.459Z,7.80
2018-12-29T16:11:41.131Z,10.95
2018-12-29T16:14:10.569Z,16.00
2018-12-29T16:16:39.983Z,8.55
2018-12-29T16:19:09.749Z,8.43
2018-12-29T16:21:39.205Z,9.93
2018-12-29T16:24:08.644Z,10.45
2018-12-29T16:26:38.094Z,10.15
2018-12-29T16:29:07.519Z,10.43
2018-12-29T16:31:36.961Z,10.43
2018-12-29T16:34:08.351Z,11.05
2018-12-29T16:36:37.791Z,11.38
2018-12-29T16:39:08.160Z,11.43
2018-12-29T16:41:37.614Z,10.35
2018-12-29T16:44:07.034Z,11.38
2018-12-29T16:46:36.799Z,11.97
2018-12-29T16:49:06.954Z,18.30
2018-12-29T16:51:36.587Z,14.45
2018-12-29T16:54:06.028Z,18.52
2018-12-29T16:56:35.882Z,18.20
2018-12-29T16:59:05.306Z,16.42
2018-12-29T17:01:35.185Z,19.37
2018-12-29T17:04:04.614Z,27.37
2018-12-29T17:06:34.373Z,15.90
2018-12-29T17:09:05.181Z,30.25
2018-12-29T17:11:34.634Z,25.15
2018-12-29T17:14:04.773Z,17.10
2018-12-29T17:16:34.403Z,15.53
2018-12-29T17:19:03.827Z,18.85
2018-12-29T17:21:33.985Z,63.92
2018-12-29T17:24:04.132Z,16.00
2018-12-29T17:26:33.571Z,16.70
2018-12-29T17:29:03.011Z,43.20
2018-12-29T17:31:32.497Z,17.90
2018-12-29T17:34:02.349Z,16.35
2018-12-29T17:36:31.872Z,15.20
2018-12-29T17:39:02.691Z,14.60
2018-12-29T17:41:32.452Z,14.18
2018-12-29T17:44:01.906Z,13.32
2018-12-29T17:46:31.666Z,15.45
2018-12-29T17:49:01.162Z,15.43
2018-12-29T17:51:30.635Z,15.75
2018-12-29T17:54:00.493Z,17.12
2018-12-29T17:56:30.699Z,18.90
2018-12-29T17:59:00.290Z,18.62
2018-12-29T18:01:30.120Z,27.10
2018-12-29T18:03:59.691Z,16.93
2018-12-29T18:06:29.157Z,16.57
2018-12-29T18:08:59.275Z,17.05
2018-12-29T18:11:28.738Z,15.98
2018-12-29T18:13:58.188Z,16.48
2018-12-29T18:16:27.705Z,17.10
2018-12-29T18:18:57.419Z,17.10
2018-12-29T18:21:26.945Z,18.92
2018-12-29T18:23:56.401Z,17.32
2018-12-29T18:26:25.945Z,19.42
2018-12-29T18:28:55.457Z,23.47
2018-12-29T18:31:25.342Z,17.37
2018-12-29T18:33:55.295Z,19.25
2018-12-29T18:36:24.818Z,18.52
2018-12-29T18:38:54.275Z,21.87
2018-12-29T18:41:24.736Z,22.98
2018-12-29T18:43:54.562Z,18.87
2018-12-29T18:46:24.061Z,17.17
2018-12-29T18:48:53.565Z,19.48
2018-12-29T18:51:23.499Z,28.40
2018-12-29T18:53:53.083Z,23.75
2018-12-29T18:56:23.017Z,17.70
2018-12-29T18:58:52.568Z,22.73
2018-12-29T19:01:22.062Z,24.90
2018-12-29T19:03:52.062Z,32.15
2018-12-29T19:06:21.818Z,24.90
2018-12-29T19:08:51.383Z,37.48
2018-12-29T19:11:43.404Z,25.32
2018-12-29T19:14:13.338Z,28.60
2018-12-29T19:16:43.398Z,33.50
2018-12-29T19:19:12.810Z,77.17
2018-12-29T19:21:42.267Z,28.25
2018-12-29T19:24:11.729Z,18.82
2018-12-29T19:26:41.872Z,75.03
2018-12-29T19:29:11.377Z,42.10
2018-12-29T19:31:44.581Z,30.25
2018-12-29T19:34:12.338Z,16.77
2018-12-29T19:36:41.868Z,18.52
2018-12-29T19:39:11.804Z,16.65
2018-12-29T19:41:46.607Z,17.48
2018-12-29T19:44:13.363Z,17.10
2018-12-29T19:46:43.466Z,18.57
2018-12-29T19:49:13.710Z,14.80
2018-12-29T19:51:43.173Z,15.65
2018-12-29T19:54:12.630Z,12.98
2018-12-29T19:56:42.956Z,15.90
2018-12-29T19:59:13.352Z,13.13
2018-12-29T20:01:43.294Z,11.90
2018-12-29T20:04:13.772Z,10.13
2018-12-29T20:06:43.369Z,11.38
2018-12-29T20:09:12.997Z,10.58
2018-12-29T20:11:42.432Z,9.95
2018-12-29T20:14:12.668Z,8.08
2018-12-29T20:16:42.201Z,8.95
2018-12-29T20:19:11.703Z,8.20
2018-12-29T20:21:41.485Z,9.18
2018-12-29T20:24:11.718Z,12.70
2018-12-29T20:26:41.675Z,13.50
2018-12-29T20:29:11.177Z,12.50
2018-12-29T20:31:41.069Z,13.50
2018-12-29T20:34:10.632Z,13.22
2018-12-29T20:36:40.409Z,13.65
2018-12-29T20:39:09.845Z,13.68
2018-12-29T20:41:39.293Z,14.05
2018-12-29T20:44:08.768Z,14.38
2018-12-29T20:46:38.230Z,15.95
2018-12-29T20:49:07.688Z,16.07
2018-12-29T20:51:37.278Z,15.65
2018-12-29T20:54:06.710Z,17.27
2018-12-29T20:56:36.278Z,17.15
2018-12-29T20:59:05.754Z,17.52
2018-12-29T21:01:35.495Z,16.93
2018-12-29T21:04:05.172Z,18.60
2018-12-29T21:06:34.707Z,18.30
2018-12-29T21:09:05.942Z,18.02
2018-12-29T21:11:35.376Z,17.95
2018-12-29T21:14:04.861Z,16.80
2018-12-29T21:16:35.097Z,17.62
2018-12-29T21:19:05.332Z,16.50
2018-12-29T21:21:35.143Z,17.00
2018-12-29T21:24:12.243Z,17.15
2018-12-29T21:26:40.119Z,15.20
2018-12-29T21:29:09.898Z,14.28
2018-12-29T21:31:39.398Z,13.50
2018-12-29T21:34:09.257Z,14.23
2018-12-29T21:36:38.710Z,14.23
2018-12-29T21:39:08.385Z,12.80
2018-12-29T21:41:38.431Z,14.18
2018-12-29T21:44:07.863Z,13.35
2018-12-29T21:46:37.745Z,14.20
2018-12-29T21:49:07.191Z,12.93
2018-12-29T21:51:37.221Z,14.15
2018-12-29T21:54:08.361Z,13.25
2018-12-29T21:56:37.871Z,12.68
2018-12-29T21:59:07.711Z,12.80
2018-12-29T22:01:37.601Z,12.20
2018-12-29T22:04:07.347Z,12.18
2018-12-29T22:06:37.184Z,12.55
2018-12-29T22:09:07.872Z,11.68
2018-12-29T22:11:37.916Z,12.20
2018-12-29T22:14:07.724Z,12.10
2018-12-29T22:16:37.229Z,11.83
2018-12-29T22:19:07.260Z,12.18
2018-12-29T22:21:37.055Z,11.70
2018-12-29T22:24:06.777Z,11.18
2018-12-29T22:26:36.273Z,11.60
2018-12-29T22:29:05.827Z,11.85
2018-12-29T22:31:35.695Z,10.80
2018-12-29T22:34:05.121Z,11.70
2018-12-29T22:36:34.571Z,12.33
2018-12-29T22:39:05.312Z,10.78
2018-12-29T22:41:34.790Z,11.15
2018-12-29T22:44:04.900Z,11.18
2018-12-29T22:46:34.621Z,10.68
2018-12-29T22:49:04.113Z,9.43
2018-12-29T22:51:33.705Z,10.15
2018-12-29T22:54:03.486Z,10.32
2018-12-29T22:56:33.368Z,8.35
2018-12-29T22:59:02.801Z,10.28
2018-12-29T23:01:32.333Z,9.20
2018-12-29T23:04:02.089Z,9.00
2018-12-29T23:06:31.511Z,8.70
2018-12-29T23:09:01.288Z,9.18
2018-12-29T23:11:30.775Z,8.50
2018-12-29T23:14:00.534Z,8.03
2018-12-29T23:16:29.969Z,7.25
2018-12-29T23:18:59.844Z,7.80
2018-12-29T23:21:29.400Z,6.50
2018-12-29T23:24:00.048Z,7.28
2018-12-29T23:26:29.578Z,6.47
2018-12-29T23:28:59.009Z,6.35
2018-12-29T23:31:28.774Z,7.53
2018-12-29T23:33:58.209Z,6.70
2018-12-29T23:36:28.049Z,6.35
2018-12-29T23:38:57.551Z,6.20
2018-12-29T23:41:26.998Z,6.15
2018-12-29T23:43:56.804Z,5.67
2018-12-29T23:46:26.348Z,6.22
2018-12-29T23:48:55.766Z,5.75
2018-12-29T23:51:25.585Z,6.80
2018-12-29T23:53:55.229Z,6.40
2018-12-29T23:56:25.374Z,6.60
2018-12-29T23:58:54.799Z,6.40
